Time;durP1;ratioP1;P1;durP2;ratioP2;P2;SDS_P1;SDS_P2;PMS_P1;PMS_P2;Temp;Humidity;BMP_temperature;BMP_pressure;BME280_temperature;BME280_humidity;BME280_pressure;Samples;Min_cycle;Max_cycle;Signal;HPM_P1;HPM_P2
2023/07/07 00:01:49;;;;;;;6.45;3.95;;;24.10;99.90;;;;;;5130556;27;20053;-52
2023/07/07 00:04:15;;;;;;;5.40;3.60;;;24.10;99.90;;;;;;5122466;27;20422;-52
2023/07/07 00:06:41;;;;;;;5.75;3.63;;;24.00;99.90;;;;;;5131098;27;20039;-52
2023/07/07 00:09:07;;;;;;;5.90;3.65;;;23.90;99.90;;;;;;5129095;27;20026;-53
2023/07/07 00:11:33;;;;;;;6.05;2.88;;;24.00;99.90;;;;;;5135226;27;20148;-52
2023/07/07 00:13:59;;;;;;;8.63;4.22;;;23.90;99.90;;;;;;5133280;27;20023;-52
2023/07/07 00:16:27;;;;;;;8.85;3.80;;;23.80;99.90;;;;;;5124192;27;20575;-52
2023/07/07 00:18:54;;;;;;;7.65;3.55;;;23.80;99.90;;;;;;5106619;27;20455;-52
2023/07/07 00:21:24;;;;;;;4.90;3.38;;;23.80;99.90;;;;;;5128635;27;20088;-53
2023/07/07 00:23:55;;;;;;;5.72;3.35;;;23.70;99.90;;;;;;5131431;27;20065;-52
2023/07/07 00:26:22;;;;;;;8.52;3.95;;;;;;;;;;5131169;27;20027;-52
2023/07/07 00:28:48;;;;;;;6.85;4.72;;;23.50;99.90;;;;;;5112612;27;20023;-53
2023/07/07 00:31:15;;;;;;;6.78;4.10;;;;;;;;;;5126339;27;20101;-52
2023/07/07 00:33:41;;;;;;;6.85;3.45;;;;;;;;;;5134864;27;20370;-52
2023/07/07 00:36:07;;;;;;;8.02;4.05;;;;;;;;;;5104179;27;20490;-52
2023/07/07 00:38:33;;;;;;;9.20;3.83;;;;;;;;;;5129391;27;20390;-51
2023/07/07 00:41:04;;;;;;;5.22;3.45;;;;;;;;;;5122796;27;20084;-53
2023/07/07 00:43:30;;;;;;;5.32;3.67;;;;;;;;;;5122483;27;20033;-53
2023/07/07 00:45:56;;;;;;;7.30;4.05;;;;;;;;;;5124843;27;20123;-54
2023/07/07 00:48:23;;;;;;;8.80;3.70;;;;;;;;;;5124817;27;20072;-54
2023/07/07 00:50:52;;;;;;;5.28;3.42;;;;;;;;;;5126957;27;20417;-52
2023/07/07 00:53:19;;;;;;;6.95;4.28;;;;;;;;;;5134348;27;20039;-54
2023/07/07 00:55:49;;;;;;;6.57;3.50;;;;;;;;;;5131388;27;20031;-53
2023/07/07 00:58:19;;;;;;;6.75;4.70;;;;;;;;;;5127723;27;20030;-53
2023/07/07 01:00:48;;;;;;;5.72;3.90;;;;;;;;;;5129911;27;20105;-54
2023/07/07 01:03:22;;;;;;;5.90;3.72;;;;;;;;;;5129602;27;20019;-54
2023/07/07 01:05:50;;;;;;;6.30;3.70;;;;;;;;;;5104886;27;20526;-51
2023/07/07 01:08:17;;;;;;;4.80;3.33;;;;;;;;;;5114419;27;20126;-54
2023/07/07 01:10:43;;;;;;;10.23;4.10;;;;;;;;;;5134288;27;20030;-52
2023/07/07 01:13:09;;;;;;;8.90;4.45;;;;;;;;;;5125640;27;20138;-52
2023/07/07 01:15:38;;;;;;;8.20;4.28;;;;;;;;;;5062831;27;20035;-52
2023/07/07 01:18:23;;;;;;;6.30;3.78;;;;;;;;;;5132569;27;20032;-52
2023/07/07 01:21:02;;;;;;;7.05;4.30;;;;;;;;;;5122749;27;20502;-51
2023/07/07 01:23:40;;;;;;;7.85;4.03;;;;;;;;;;5131637;27;20051;-53
2023/07/07 01:26:18;;;;;;;7.60;4.43;;;;;;;;;;5123846;27;20098;-53
2023/07/07 01:29:00;;;;;;;6.78;4.25;;;;;;;;;;5111263;27;20118;-52
2023/07/07 01:31:32;;;;;;;8.88;3.80;;;;;;;;;;5130202;27;20027;-52
2023/07/07 01:34:00;;;;;;;4.82;3.50;;;23.00;99.90;;;;;;5124719;27;20031;-51
2023/07/07 01:36:26;;;;;;;7.45;4.35;;;22.80;99.90;;;;;;5130426;27;20510;-53
2023/07/07 01:38:52;;;;;;;5.82;3.60;;;22.70;99.90;;;;;;5129991;27;20050;-53
2023/07/07 01:41:38;;;;;;;8.50;4.20;;;22.70;99.90;;;;;;5131701;27;20027;-55
2023/07/07 01:44:44;;;;;;;6.07;3.75;;;22.70;99.90;;;;;;5128473;27;20038;-54
2023/07/07 01:47:31;;;;;;;6.28;3.65;;;22.70;99.90;;;;;;5000257;28;20428;-52
2023/07/07 01:50:03;;;;;;;5.80;3.80;;;22.70;99.90;;;;;;5050825;28;20222;-54
2023/07/07 01:52:39;;;;;;;6.22;4.00;;;22.80;99.90;;;;;;5052489;28;20136;-53
2023/07/07 01:55:20;;;;;;;7.32;3.92;;;22.80;99.90;;;;;;5051585;28;20033;-53
2023/07/07 01:57:50;;;;;;;7.72;4.57;;;22.80;99.90;;;;;;5047323;28;20044;-51
2023/07/07 02:00:17;;;;;;;6.60;4.07;;;22.80;99.90;;;;;;5007406;28;20049;-52
2023/07/07 02:02:44;;;;;;;7.50;4.78;;;;;;;;;;5037215;28;20032;-52
2023/07/07 02:05:11;;;;;;;6.68;4.63;;;;;;;;;;5019769;28;20068;-52
2023/07/07 02:07:38;;;;;;;5.85;4.30;;;22.30;99.90;;;;;;5054208;28;20039;-53
2023/07/07 02:10:04;;;;;;;8.93;4.18;;;22.40;99.90;;;;;;5051940;28;20120;-53
2023/07/07 02:12:29;;;;;;;6.38;4.15;;;22.30;99.90;;;;;;4967720;28;20527;-53
2023/07/07 02:14:55;;;;;;;8.40;4.75;;;;;;;;;;5049817;28;20107;-52
2023/07/07 02:17:21;;;;;;;8.23;4.60;;;22.10;99.90;;;;;;5021147;28;20098;-54
2023/07/07 02:19:47;;;;;;;9.32;4.65;;;22.10;99.90;;;;;;5035055;28;20426;-53
2023/07/07 02:22:13;;;;;;;7.97;4.22;;;22.10;99.90;;;;;;5016337;28;20095;-52
2023/07/07 02:24:39;;;;;;;8.18;4.55;;;22.00;99.90;;;;;;5124464;27;20043;-52
2023/07/07 02:27:07;;;;;;;6.78;3.90;;;22.10;99.90;;;;;;5108361;27;20035;-52
2023/07/07 02:29:33;;;;;;;6.22;4.65;;;22.00;99.90;;;;;;5090407;27;20071;-52
2023/07/07 02:31:58;;;;;;;6.32;4.72;;;22.10;99.90;;;;;;5127298;27;20039;-52
2023/07/07 02:34:24;;;;;;;7.28;5.35;;;22.10;99.90;;;;;;5121673;27;20035;-53
2023/07/07 02:36:52;;;;;;;7.05;4.95;;;22.10;99.90;;;;;;5124549;27;20164;-54
2023/07/07 02:39:17;;;;;;;8.73;4.68;;;22.10;99.90;;;;;;5029496;27;20035;-54
2023/07/07 02:41:43;;;;;;;6.65;4.38;;;22.10;99.90;;;;;;5119391;27;20355;-51
2023/07/07 02:44:09;;;;;;;8.65;5.93;;;22.10;99.90;;;;;;5129570;27;20055;-54
2023/07/07 02:46:34;;;;;;;7.00;4.97;;;22.20;99.90;;;;;;5129504;27;20066;-53
2023/07/07 02:49:00;;;;;;;7.75;4.63;;;22.20;99.90;;;;;;5128896;27;20127;-53
2023/07/07 02:51:26;;;;;;;9.20;5.63;;;22.20;99.90;;;;;;5128571;27;20026;-53
2023/07/07 02:53:51;;;;;;;9.73;5.55;;;22.20;99.90;;;;;;5100521;27;20031;-54
2023/07/07 02:56:17;;;;;;;8.95;4.93;;;22.20;99.90;;;;;;5132106;27;20031;-53
2023/07/07 02:58:43;;;;;;;8.75;5.20;;;22.00;99.90;;;;;;5126173;27;20106;-52
2023/07/07 03:01:14;;;;;;;8.73;5.32;;;22.20;99.90;;;;;;5126406;27;20050;-53
2023/07/07 03:03:43;;;;;;;11.57;5.13;;;22.20;99.90;;;;;;5104476;28;20438;-53
2023/07/07 03:06:22;;;;;;;9.13;5.10;;;22.20;99.90;;;;;;5102353;28;20040;-53
2023/07/07 03:08:48;;;;;;;8.18;5.30;;;22.10;99.90;;;;;;5102342;28;20032;-52
2023/07/07 03:11:17;;;;;;;9.25;5.70;;;22.20;99.90;;;;;;5101202;28;20036;-52
2023/07/07 03:13:45;;;;;;;10.05;5.97;;;22.10;99.90;;;;;;5098569;28;20051;-53
2023/07/07 03:16:20;;;;;;;11.32;5.72;;;22.00;99.90;;;;;;5101133;28;20024;-53
2023/07/07 03:18:48;;;;;;;13.77;8.25;;;22.10;99.90;;;;;;5096527;28;20036;-52
2023/07/07 03:21:16;;;;;;;8.82;6.15;;;22.00;99.90;;;;;;5105598;28;20040;-52
2023/07/07 03:23:42;;;;;;;9.27;5.90;;;22.00;99.90;;;;;;5103138;28;20059;-53
2023/07/07 03:26:10;;;;;;;9.45;5.32;;;22.00;99.90;;;;;;5071104;28;20051;-52
2023/07/07 03:28:36;;;;;;;8.55;5.70;;;22.00;99.90;;;;;;5093829;28;20197;-51
2023/07/07 03:31:34;;;;;;;9.70;5.50;;;21.90;99.90;;;;;;5040783;28;20122;-53
2023/07/07 03:34:02;;;;;;;8.93;5.18;;;21.70;99.90;;;;;;5013648;28;20822;-52
2023/07/07 03:36:30;;;;;;;9.45;5.55;;;21.60;99.90;;;;;;5045598;28;20146;-54
2023/07/07 03:38:56;;;;;;;8.93;5.70;;;21.50;99.90;;;;;;5045620;28;20150;-53
2023/07/07 03:41:24;;;;;;;9.00;5.28;;;21.50;99.90;;;;;;4998879;28;20036;-53
2023/07/07 03:43:51;;;;;;;9.40;5.70;;;21.60;99.90;;;;;;5047505;28;20497;-51
2023/07/07 03:46:18;;;;;;;12.70;5.63;;;21.70;99.90;;;;;;5048115;28;20119;-53
2023/07/07 03:48:46;;;;;;;11.50;5.60;;;21.70;99.90;;;;;;5045200;28;20132;-52
2023/07/07 03:51:13;;;;;;;8.15;5.18;;;21.80;99.90;;;;;;5048295;28;20065;-51
2023/07/07 03:53:39;;;;;;;11.43;6.15;;;21.90;99.90;;;;;;5048370;28;20358;-52
2023/07/07 03:56:06;;;;;;;8.40;5.45;;;21.90;99.90;;;;;;5047605;28;20041;-51
2023/07/07 03:58:32;;;;;;;9.63;5.25;;;21.90;99.90;;;;;;5048138;28;20159;-53
2023/07/07 04:01:06;;;;;;;9.70;5.57;;;21.90;99.90;;;;;;5047629;28;20029;-52
2023/07/07 04:03:32;;;;;;;9.57;6.40;;;21.90;99.90;;;;;;5046686;28;20037;-53
2023/07/07 04:05:59;;;;;;;9.98;5.93;;;21.90;99.90;;;;;;5047324;28;20032;-51
2023/07/07 04:08:26;;;;;;;10.10;4.72;;;21.90;99.90;;;;;;5050312;28;20029;-53
2023/07/07 04:11:06;;;;;;;9.40;5.10;;;22.00;99.90;;;;;;5131384;27;20428;-52
2023/07/07 04:13:35;;;;;;;8.38;4.80;;;22.00;99.90;;;;;;5123394;28;20043;-53
2023/07/07 04:16:03;;;;;;;9.57;5.82;;;22.10;99.90;;;;;;5131377;27;20016;-52
2023/07/07 04:18:33;;;;;;;7.93;5.30;;;22.00;99.90;;;;;;5084020;28;20043;-53
2023/07/07 04:21:00;;;;;;;8.45;4.97;;;22.10;99.90;;;;;;5125129;27;20039;-52
2023/07/07 04:23:27;;;;;;;10.50;4.75;;;22.20;99.90;;;;;;5131519;27;20064;-52
2023/07/07 04:25:53;;;;;;;10.68;5.32;;;22.20;99.90;;;;;;5132531;27;20587;-55
2023/07/07 04:28:19;;;;;;;9.90;5.43;;;22.10;99.90;;;;;;5128735;27;20023;-54
2023/07/07 04:30:52;;;;;;;7.15;4.88;;;22.10;99.90;;;;;;5134103;27;20474;-53
2023/07/07 04:33:18;;;;;;;10.50;5.45;;;22.10;99.90;;;;;;5133601;27;20071;-53
2023/07/07 04:35:43;;;;;;;8.45;4.63;;;22.10;99.90;;;;;;5128171;27;20381;-53
2023/07/07 04:38:10;;;;;;;9.15;4.90;;;22.00;99.90;;;;;;5119852;27;20464;-52
2023/07/07 04:40:36;;;;;;;8.00;4.55;;;22.10;99.90;;;;;;5112494;27;20043;-53
2023/07/07 04:43:01;;;;;;;6.55;4.47;;;22.10;99.90;;;;;;5131533;27;20067;-51
2023/07/07 04:45:27;;;;;;;6.72;3.92;;;22.20;99.90;;;;;;5132168;27;20030;-51
2023/07/07 04:47:53;;;;;;;7.45;4.20;;;22.10;99.90;;;;;;5110376;27;20069;-51
2023/07/07 04:50:19;;;;;;;7.70;4.80;;;22.10;99.90;;;;;;5128648;27;20030;-52
2023/07/07 04:52:45;;;;;;;9.65;4.97;;;22.10;99.90;;;;;;5131546;27;20039;-51
2023/07/07 04:55:12;;;;;;;7.50;4.35;;;22.10;99.90;;;;;;5081162;27;20057;-51
2023/07/07 04:57:39;;;;;;;11.55;4.70;;;22.10;99.90;;;;;;5115753;27;20039;-53
2023/07/07 05:00:08;;;;;;;7.78;4.80;;;22.10;99.90;;;;;;5132742;27;20039;-52
2023/07/07 05:02:35;;;;;;;7.25;4.13;;;22.20;99.90;;;;;;5091723;27;20035;-52
2023/07/07 05:05:02;;;;;;;6.50;3.88;;;22.30;99.90;;;;;;5132041;27;20458;-53
2023/07/07 05:07:28;;;;;;;7.18;4.18;;;22.40;99.90;;;;;;5132446;27;20435;-51
2023/07/07 05:09:55;;;;;;;7.82;4.03;;;22.50;99.90;;;;;;5128577;27;20405;-53
2023/07/07 05:12:21;;;;;;;7.40;3.80;;;22.40;99.90;;;;;;5132163;27;20533;-52
2023/07/07 05:14:47;;;;;;;6.25;4.10;;;22.40;99.90;;;;;;5130373;27;20107;-50
2023/07/07 05:17:12;;;;;;;6.70;4.25;;;22.40;99.90;;;;;;5130487;27;20041;-52
2023/07/07 05:19:38;;;;;;;6.00;3.65;;;22.40;99.90;;;;;;5132050;27;20110;-52
2023/07/07 05:22:04;;;;;;;10.52;4.10;;;22.30;99.90;;;;;;5130014;27;20043;-52
2023/07/07 05:24:30;;;;;;;7.28;4.43;;;22.40;99.90;;;;;;5087317;28;20478;-52
2023/07/07 05:26:56;;;;;;;7.55;3.78;;;22.60;99.90;;;;;;5132781;27;20059;-54
2023/07/07 05:29:22;;;;;;;6.70;3.88;;;22.70;99.90;;;;;;5125601;27;20074;-53
2023/07/07 05:31:48;;;;;;;7.65;4.10;;;22.80;99.90;;;;;;5125562;27;20035;-51
2023/07/07 05:34:14;;;;;;;9.63;3.88;;;22.90;99.90;;;;;;5133788;27;20076;-52
2023/07/07 05:36:40;;;;;;;5.82;3.63;;;22.80;99.90;;;;;;5131086;27;20030;-51
2023/07/07 05:39:06;;;;;;;7.65;4.22;;;22.70;99.90;;;;;;5132163;27;20470;-53
2023/07/07 05:41:32;;;;;;;6.95;2.92;;;22.70;99.90;;;;;;5106241;27;20046;-51
2023/07/07 05:43:58;;;;;;;7.00;3.85;;;22.70;99.90;;;;;;5132699;27;20554;-52
2023/07/07 05:46:24;;;;;;;7.60;3.75;;;22.80;99.90;;;;;;5123554;27;20055;-53
2023/07/07 05:48:50;;;;;;;6.93;3.58;;;22.90;99.90;;;;;;5128014;27;20043;-52
2023/07/07 05:51:18;;;;;;;8.50;4.00;;;23.10;99.90;;;;;;5123452;27;20524;-51
2023/07/07 05:53:44;;;;;;;7.93;3.80;;;23.20;99.90;;;;;;5130018;27;20039;-53
2023/07/07 05:56:15;;;;;;;4.82;3.03;;;23.50;99.90;;;;;;5133468;27;20466;-52
2023/07/07 05:58:41;;;;;;;10.95;3.28;;;23.70;99.90;;;;;;5130996;27;20161;-51
2023/07/07 06:01:09;;;;;;;9.45;3.70;;;23.60;99.90;;;;;;5075932;27;20131;-53
2023/07/07 06:03:37;;;;;;;7.18;4.13;;;23.70;99.90;;;;;;5134200;27;20039;-53
2023/07/07 06:06:03;;;;;;;10.48;3.50;;;23.80;99.90;;;;;;5125420;27;20087;-53
2023/07/07 06:08:28;;;;;;;5.35;3.15;;;23.90;99.90;;;;;;5128533;27;20023;-53
2023/07/07 06:10:54;;;;;;;5.63;3.58;;;23.90;99.90;;;;;;5119684;27;20485;-53
2023/07/07 06:13:23;;;;;;;6.68;3.55;;;23.90;99.90;;;;;;5126282;27;20050;-52
2023/07/07 06:15:53;;;;;;;7.88;3.60;;;23.90;99.90;;;;;;5126861;27;20046;-51
2023/07/07 06:18:19;;;;;;;4.72;3.08;;;23.70;99.90;;;;;;5124197;27;20035;-51
2023/07/07 06:20:58;;;;;;;4.45;2.80;;;23.60;99.90;;;;;;5098861;28;20035;-53
2023/07/07 06:23:24;;;;;;;4.57;2.47;;;23.80;99.90;;;;;;5122193;27;20044;-51
2023/07/07 06:25:49;;;;;;;8.85;3.78;;;23.60;99.90;;;;;;5131030;27;20023;-52
2023/07/07 06:28:16;;;;;;;5.22;3.35;;;23.80;99.90;;;;;;5113066;27;20035;-52
2023/07/07 06:30:42;;;;;;;8.60;3.45;;;24.20;99.90;;;;;;5127000;27;20072;-51
2023/07/07 06:33:08;;;;;;;5.70;3.13;;;24.20;99.90;;;;;;5126643;27;20069;-52
2023/07/07 06:35:34;;;;;;;8.63;3.47;;;24.50;99.90;;;;;;5130063;27;20051;-51
2023/07/07 06:37:59;;;;;;;5.00;2.85;;;24.60;99.90;;;;;;5131109;27;20037;-52
2023/07/07 06:40:25;;;;;;;5.13;2.95;;;24.60;99.90;;;;;;5131975;27;20125;-53
2023/07/07 06:42:53;;;;;;;7.07;3.17;;;24.60;99.90;;;;;;5130872;27;20030;-51
2023/07/07 06:45:19;;;;;;;6.45;3.28;;;24.60;99.90;;;;;;5128217;27;20066;-52
2023/07/07 06:47:44;;;;;;;5.97;3.35;;;24.60;99.90;;;;;;5131617;27;20062;-52
2023/07/07 06:50:27;;;;;;;4.82;3.10;;;24.80;99.90;;;;;;5131190;27;20474;-53
2023/07/07 06:52:53;;;;;;;6.57;3.15;;;24.80;99.90;;;;;;5080829;28;20040;-53
2023/07/07 06:55:19;;;;;;;5.15;2.83;;;24.60;99.90;;;;;;5065866;28;20044;-53
2023/07/07 06:57:45;;;;;;;4.72;2.97;;;24.70;99.90;;;;;;5038182;28;20463;-52
2023/07/07 07:00:11;;;;;;;5.47;2.67;;;24.70;99.90;;;;;;5084986;28;20490;-52
2023/07/07 07:02:37;;;;;;;6.60;2.90;;;24.60;99.90;;;;;;5080509;28;20036;-54
2023/07/07 07:05:03;;;;;;;7.57;3.40;;;24.50;99.90;;;;;;5088998;28;20391;-53
2023/07/07 07:07:31;;;;;;;8.50;3.47;;;24.70;99.90;;;;;;5083788;28;20032;-52
2023/07/07 07:09:57;;;;;;;4.78;3.15;;;24.80;99.90;;;;;;5084188;28;20103;-53
2023/07/07 07:12:22;;;;;;;5.45;3.15;;;24.60;99.90;;;;;;5077876;28;20128;-52
2023/07/07 07:14:48;;;;;;;9.52;3.30;;;24.60;99.90;;;;;;5085270;28;20024;-52
2023/07/07 07:17:14;;;;;;;8.70;3.67;;;24.80;99.90;;;;;;5082644;28;20029;-51
2023/07/07 07:19:40;;;;;;;8.00;3.10;;;24.30;99.90;;;;;;5081752;28;20044;-53
2023/07/07 07:22:05;;;;;;;6.00;3.25;;;24.40;99.90;;;;;;5079915;28;20055;-53
2023/07/07 07:24:31;;;;;;;6.72;3.08;;;24.50;99.90;;;;;;5075806;28;20039;-53
2023/07/07 07:26:57;;;;;;;7.78;3.30;;;24.60;99.90;;;;;;5101669;28;20042;-52
2023/07/07 07:29:22;;;;;;;5.05;3.15;;;24.30;99.90;;;;;;5126761;28;20019;-53
2023/07/07 07:31:48;;;;;;;8.10;3.47;;;24.30;99.90;;;;;;5126082;28;20020;-52
2023/07/07 07:34:26;;;;;;;8.07;3.55;;;24.30;99.90;;;;;;5126092;28;20019;-51
2023/07/07 07:36:53;;;;;;;6.43;3.03;;;24.40;99.90;;;;;;5127988;27;20035;-53
2023/07/07 07:39:19;;;;;;;6.80;3.83;;;24.90;99.90;;;;;;5122183;27;20024;-51
2023/07/07 07:41:47;;;;;;;8.25;3.60;;;25.10;99.90;;;;;;5111926;28;20031;-52
2023/07/07 07:44:17;;;;;;;7.57;3.63;;;25.30;99.90;;;;;;5121196;28;20038;-51
2023/07/07 07:46:44;;;;;;;7.03;3.08;;;;;;;;;;5110907;28;20031;-52
2023/07/07 07:49:10;;;;;;;5.82;3.05;;;;;;;;;;5122642;28;20028;-51
2023/07/07 07:51:38;;;;;;;7.43;3.20;;;;;;;;;;5129982;28;20024;-52
2023/07/07 07:54:06;;;;;;;6.60;3.10;;;25.80;99.90;;;;;;5124924;27;20031;-52
2023/07/07 07:56:32;;;;;;;6.20;3.63;;;25.60;99.90;;;;;;5123314;27;20063;-52
2023/07/07 07:58:58;;;;;;;6.20;2.97;;;25.70;99.90;;;;;;5122853;27;20456;-51
2023/07/07 08:01:24;;;;;;;6.32;3.17;;;25.60;99.90;;;;;;5130990;27;20068;-51
2023/07/07 08:03:50;;;;;;;6.93;3.53;;;25.70;99.90;;;;;;5127781;27;20497;-51
2023/07/07 08:06:16;;;;;;;7.53;3.47;;;25.80;99.90;;;;;;5122319;27;20115;-53
2023/07/07 08:08:42;;;;;;;7.22;3.70;;;25.70;99.90;;;;;;5132208;27;20023;-51
2023/07/07 08:11:13;;;;;;;6.47;3.58;;;25.90;99.90;;;;;;5133080;27;20070;-52
2023/07/07 08:13:39;;;;;;;5.57;3.20;;;;;;;;;;5125644;27;20035;-53
2023/07/07 08:16:05;;;;;;;8.05;3.15;;;;;;;;;;5113850;27;20041;-53
2023/07/07 08:18:31;;;;;;;6.10;3.38;;;;;;;;;;5133257;27;20110;-51
2023/07/07 08:20:57;;;;;;;9.82;4.05;;;;;;;;;;5128058;27;20020;-52
2023/07/07 08:23:23;;;;;;;5.15;3.25;;;;;;;;;;5114959;27;20066;-53
2023/07/07 08:25:51;;;;;;;5.80;3.22;;;;;;;;;;5132873;27;20031;-51
2023/07/07 08:28:18;;;;;;;9.43;3.50;;;;;;;;;;5129173;27;20035;-52
2023/07/07 08:30:44;;;;;;;8.00;3.72;;;;;;;;;;5131479;27;20066;-52
2023/07/07 08:33:10;;;;;;;8.70;3.92;;;;;;;;;;5105798;27;20139;-53
2023/07/07 08:35:36;;;;;;;8.00;3.47;;;;;;;;;;5131867;27;20458;-51
2023/07/07 08:38:02;;;;;;;5.18;3.50;;;26.70;99.90;;;;;;5118683;27;20043;-53
2023/07/07 08:40:35;;;;;;;6.50;3.63;;;;;;;;;;5128899;27;20027;-53
2023/07/07 08:43:01;;;;;;;6.45;3.17;;;27.10;99.90;;;;;;5129492;27;20031;-52
2023/07/07 08:45:27;;;;;;;4.93;2.90;;;;;;;;;;5134821;27;20023;-53
2023/07/07 08:48:12;;;;;;;6.80;3.58;;;;;;;;;;5132866;27;20502;-53
2023/07/07 08:50:44;;;;;;;4.57;3.03;;;27.90;99.90;;;;;;5129645;27;20034;-54
2023/07/07 08:53:40;;;;;;;6.13;3.75;;;28.00;99.90;;;;;;5126635;27;20436;-51
2023/07/07 08:56:18;;;;;;;6.47;3.15;;;28.00;99.90;;;;;;5129464;27;20714;-52
2023/07/07 08:58:50;;;;;;;6.45;3.35;;;;;;;;;;5131788;27;20058;-52
2023/07/07 09:01:41;;;;;;;5.38;3.00;;;28.50;99.90;;;;;;5133407;27;20106;-51
2023/07/07 09:04:19;;;;;;;4.57;3.03;;;28.40;99.90;;;;;;5117606;27;20475;-51
2023/07/07 09:06:45;;;;;;;5.93;3.38;;;;;;;;;;5126636;27;20419;-52
2023/07/07 09:09:29;;;;;;;5.40;2.85;;;;;;;;;;5110537;27;20520;-52
2023/07/07 09:12:24;;;;;;;5.38;2.83;;;28.80;99.90;;;;;;5127202;27;20211;-51
2023/07/07 09:14:53;;;;;;;6.93;3.10;;;28.60;99.90;;;;;;5113756;27;20035;-51
2023/07/07 09:17:33;;;;;;;5.03;2.85;;;28.90;99.90;;;;;;5133027;27;20051;-51
2023/07/07 09:20:01;;;;;;;4.85;2.75;;;28.60;99.90;;;;;;5121064;27;20031;-53
2023/07/07 09:22:41;;;;;;;6.32;3.05;;;;;;;;;;5130551;27;20452;-52
2023/07/07 09:25:30;;;;;;;4.93;2.85;;;29.20;99.90;;;;;;5129113;27;20106;-51
2023/07/07 09:28:02;;;;;;;4.88;2.63;;;29.60;99.90;;;;;;5120324;27;20028;-52
2023/07/07 09:30:34;;;;;;;6.30;2.88;;;29.40;99.90;;;;;;5110306;27;20095;-54
2023/07/07 09:33:00;;;;;;;4.55;3.28;;;;;;;;;;5104879;27;20054;-52
2023/07/07 09:35:28;;;;;;;4.00;2.50;;;;;;;;;;5121828;27;20063;-53
2023/07/07 09:38:31;;;;;;;4.47;2.70;;;28.40;99.90;;;;;;5127837;27;20098;-52
2023/07/07 09:41:13;;;;;;;6.53;3.13;;;;;;;;;;5127892;27;20028;-51
2023/07/07 09:43:55;;;;;;;4.00;3.03;;;28.60;99.90;;;;;;5120943;27;20065;-52
2023/07/07 09:46:21;;;;;;;;;;;;;;;;;;5128988;27;20023;-53
2023/07/07 09:48:50;;;;;;;4.22;2.63;;;;;;;;;;5126037;27;20262;-53
2023/07/07 09:51:31;;;;;;;4.50;2.50;;;;;;;;;;5129216;27;20035;-52
2023/07/07 09:53:57;;;;;;;5.43;2.65;;;;;;;;;;5111252;27;20645;-53
2023/07/07 09:56:26;;;;;;;5.20;2.53;;;;;;;;;;5123915;27;20026;-52
2023/07/07 09:58:52;;;;;;;5.75;2.47;;;;;;;;;;5131227;27;20094;-53
2023/07/07 10:01:18;;;;;;;5.38;2.90;;;;;;;;;;5131339;27;20031;-54
2023/07/07 10:03:46;;;;;;;5.65;2.70;;;;;;;;;;5105366;27;20039;-54
2023/07/07 10:06:18;;;;;;;4.28;2.72;;;;;;;;;;5130775;27;20408;-52
2023/07/07 10:08:44;;;;;;;3.90;2.28;;;;;;;;;;5121427;27;20041;-52
2023/07/07 10:11:25;;;;;;;6.75;2.50;;;;;;;;;;5124932;27;20090;-51
2023/07/07 10:13:52;;;;;;;4.53;2.50;;;;;;;;;;5120182;27;20027;-53
2023/07/07 10:16:32;;;;;;;3.22;2.30;;;;;;;;;;5127846;27;20027;-51
2023/07/07 10:18:59;;;;;;;4.28;2.60;;;;;;;;;;5127079;27;20498;-53
2023/07/07 10:21:26;;;;;;;6.43;2.72;;;;;;;;;;5128522;27;20031;-53
2023/07/07 10:23:52;;;;;;;4.72;2.97;;;;;;;;;;5124575;27;20381;-53
2023/07/07 10:26:18;;;;;;;5.50;2.95;;;;;;;;;;5099123;27;20126;-53
2023/07/07 10:28:45;;;;;;;3.67;2.65;;;;;;;;;;5127611;27;20137;-53
2023/07/07 10:31:11;;;;;;;4.30;3.08;;;29.00;99.90;;;;;;5132139;27;20083;-57
2023/07/07 10:33:39;;;;;;;4.45;2.72;;;28.90;99.90;;;;;;5130319;27;20512;-51
2023/07/07 10:36:25;;;;;;;5.57;3.05;;;29.10;99.90;;;;;;5126153;27;20031;-54
2023/07/07 10:38:55;;;;;;;4.85;2.40;;;29.10;99.90;;;;;;5132176;27;20079;-52
2023/07/07 10:41:25;;;;;;;5.10;3.30;;;29.00;99.90;;;;;;5125909;27;20115;-52
2023/07/07 10:43:52;;;;;;;3.45;2.47;;;29.20;99.90;;;;;;5130647;27;20031;-51
2023/07/07 10:46:18;;;;;;;5.45;2.80;;;;;;;;;;5123138;27;20030;-52
2023/07/07 10:48:44;;;;;;;3.55;2.65;;;;;;;;;;5109777;28;20122;-52
2023/07/07 10:51:11;;;;;;;5.13;2.55;;;;;;;;;;5128170;27;20035;-52
2023/07/07 10:53:42;;;;;;;3.72;2.38;;;30.60;99.90;;;;;;5129504;27;20107;-51
2023/07/07 10:56:08;;;;;;;6.30;2.97;;;;;;;;;;5128581;27;20023;-51
2023/07/07 10:58:49;;;;;;;6.10;2.83;;;;;;;;;;5129885;27;20038;-53
2023/07/07 11:01:46;;;;;;;3.22;2.53;;;28.70;99.90;;;;;;5128341;27;20032;-53
2023/07/07 11:04:12;;;;;;;6.72;2.40;;;;;;;;;;5109846;27;20034;-51
2023/07/07 11:06:50;;;;;;;11.13;2.53;;;25.20;99.90;;;;;;5124876;27;20063;-54
2023/07/07 11:09:19;;;;;;;3.30;1.38;;;;;;;;;;5132447;27;20042;-52
2023/07/07 11:11:45;;;;;;;5.22;2.83;;;;;;;;;;5128954;27;20090;-52
2023/07/07 11:14:31;;;;;;;4.57;2.47;;;;;;;;;;5105313;28;20463;-51
2023/07/07 11:17:21;;;;;;;4.70;2.13;;;21.90;99.90;;;;;;5119394;28;20328;-52
2023/07/07 11:20:07;;;;;;;6.03;2.38;;;;;;;;;;5123781;28;20023;-51
2023/07/07 11:22:45;;;;;;;4.38;2.63;;;21.60;99.90;;;;;;5042592;28;20091;-54
2023/07/07 11:25:19;;;;;;;6.88;2.80;;;21.60;99.90;;;;;;5048281;28;20033;-51
2023/07/07 11:28:02;;;;;;;6.70;2.33;;;21.50;99.90;;;;;;5040512;28;20550;-52
2023/07/07 11:42:27;;;;;;;9.32;3.05;;;21.70;99.90;;;;;;5121765;27;20962;-49
2023/07/07 11:44:59;;;;;;;5.72;2.35;;;22.80;99.90;;;;;;5124104;28;20032;-51
2023/07/07 11:47:46;;;;;;;4.72;2.70;;;23.00;99.90;;;;;;5114336;28;20030;-49
2023/07/07 11:50:23;;;;;;;6.40;2.58;;;23.10;99.90;;;;;;5117244;27;20399;-51
2023/07/07 11:52:52;;;;;;;5.88;2.95;;;23.20;99.90;;;;;;5118718;28;20030;-50
2023/07/07 11:55:35;;;;;;;4.15;2.53;;;23.40;99.90;;;;;;5124482;28;20135;-49
2023/07/07 11:58:17;;;;;;;8.00;2.83;;;;;;;;;;5122006;28;20370;-51
2023/07/07 12:01:00;;;;;;;5.03;2.90;;;24.00;99.90;;;;;;5121678;28;20097;-51
2023/07/07 12:03:43;;;;;;;5.28;2.80;;;;;;;;;;5115433;28;20036;-50
2023/07/07 12:06:18;;;;;;;4.93;2.90;;;24.40;99.90;;;;;;5119407;28;20028;-51
2023/07/07 12:09:17;;;;;;;7.10;3.25;;;24.50;99.90;;;;;;5122818;28;20497;-49
2023/07/07 12:12:04;;;;;;;5.00;3.00;;;24.70;99.90;;;;;;5104270;28;20135;-51
2023/07/07 12:14:45;;;;;;;3.90;2.42;;;24.70;99.90;;;;;;5120974;28;20133;-49
2023/07/07 12:17:16;;;;;;;6.78;3.38;;;24.30;99.90;;;;;;5119610;27;20032;-50
2023/07/07 12:19:57;;;;;;;4.95;2.97;;;24.10;99.90;;;;;;5116863;27;20036;-49
2023/07/07 12:22:28;;;;;;;5.22;2.90;;;24.20;99.90;;;;;;5117702;27;20472;-51
2023/07/07 12:25:18;;;;;;;5.28;3.22;;;24.40;99.90;;;;;;5116533;28;20023;-51
2023/07/07 12:27:46;;;;;;;5.35;2.90;;;24.70;99.90;;;;;;5086082;28;20046;-50
2023/07/07 12:30:24;;;;;;;5.30;3.28;;;25.00;99.90;;;;;;5127159;27;20046;-51
2023/07/07 12:32:50;;;;;;;8.77;3.05;;;;;;;;;;5120870;28;20050;-50
2023/07/07 12:35:17;;;;;;;7.20;3.65;;;;;;;;;;5116541;28;20035;-50
2023/07/07 12:37:44;;;;;;;5.18;3.90;;;;;;;;;;5091770;28;20100;-50
2023/07/07 12:40:11;;;;;;;6.38;3.60;;;;;;;;;;5099563;28;20528;-49
2023/07/07 12:42:42;;;;;;;7.78;3.20;;;;;;;;;;5072815;28;20126;-49
2023/07/07 12:45:08;;;;;;;4.65;3.30;;;;;;;;;;5108088;28;20101;-50
2023/07/07 12:47:37;;;;;;;6.40;3.05;;;;;;;;;;5113197;28;20035;-49
2023/07/07 12:50:06;;;;;;;4.05;2.80;;;;;;;;;;5070604;28;21567;-49
2023/07/07 12:52:37;;;;;;;4.50;3.08;;;;;;;;;;5104094;28;20028;-50
2023/07/07 12:55:06;;;;;;;4.90;3.30;;;;;;;;;;5077232;28;20039;-51
2023/07/07 12:57:33;;;;;;;6.03;3.50;;;;;;;;;;5101208;28;20059;-50
2023/07/07 13:00:22;;;;;;;4.72;3.15;;;;;;;;;;5106294;28;20062;-50
2023/07/07 13:03:18;;;;;;;7.15;3.67;;;;;;;;;;5042822;28;20045;-51
2023/07/07 13:05:45;;;;;;;6.78;3.47;;;;;;;;;;4961389;28;20152;-51
2023/07/07 13:08:11;;;;;;;8.85;3.65;;;;;;;;;;4955367;28;20057;-50
2023/07/07 13:10:43;;;;;;;4.88;2.83;;;;;;;;;;4964347;28;20047;-52
2023/07/07 13:13:25;;;;;;;4.35;3.17;;;;;;;;;;4969346;28;20444;-50
2023/07/07 13:15:53;;;;;;;7.40;3.08;;;28.10;99.90;;;;;;4961993;28;20042;-50
2023/07/07 13:18:19;;;;;;;6.72;4.10;;;;;;;;;;4965821;28;20058;-51
2023/07/07 13:20:47;;;;;;;5.68;3.40;;;;;;;;;;4944792;28;20138;-50
2023/07/07 13:23:20;;;;;;;8.05;3.75;;;28.70;99.90;;;;;;4963644;28;20035;-51
2023/07/07 13:25:47;;;;;;;5.90;3.28;;;28.50;99.90;;;;;;4957866;28;20130;-49
2023/07/07 13:28:15;;;;;;;9.60;3.95;;;28.90;99.90;;;;;;4960333;28;20019;-50
2023/07/07 13:30:43;;;;;;;6.00;3.60;;;;;;;;;;4969713;28;20174;-52
2023/07/07 13:33:14;;;;;;;5.05;3.25;;;;;;;;;;4966532;28;20532;-50
2023/07/07 13:35:45;;;;;;;6.03;3.00;;;;;;;;;;4963006;28;20035;-50
2023/07/07 13:38:16;;;;;;;5.05;2.97;;;;;;;;;;4947979;28;20039;-51
2023/07/07 13:40:42;;;;;;;4.93;3.13;;;30.20;99.90;;;;;;5022341;28;20554;-50
2023/07/07 13:43:35;;;;;;;6.43;3.58;;;30.30;99.90;;;;;;5100863;28;20039;-51
2023/07/07 13:46:04;;;;;;;4.45;3.35;;;30.20;99.90;;;;;;5110306;28;20055;-49
2023/07/07 13:48:32;;;;;;;5.55;3.28;;;30.30;99.90;;;;;;5108361;28;20035;-50